sensor_id;sensor_type;location;lat;lon;timestamp;temperature;humidity
9925;DHT22;5001;51.674;7.868;2023-02-10T00:01:26;3.70;1.00
9925;DHT22;5001;51.674;7.868;2023-02-10T00:03:55;3.70;1.00
9925;DHT22;5001;51.674;7.868;2023-02-10T00:06:25;3.70;1.00
9925;DHT22;5001;51.674;7.868;2023-02-10T00:08:54;3.80;1.00
9925;DHT22;5001;51.674;7.868;2023-02-10T00:11:22;3.70;1.00
9925;DHT22;5001;51.674;7.868;2023-02-10T00:14:08;3.80;1.00
9925;DHT22;5001;51.674;7.868;2023-02-10T00:16:35;3.70;1.00
9925;DHT22;5001;51.674;7.868;2023-02-10T00:19:03;3.80;1.00
9925;DHT22;5001;51.674;7.868;2023-02-10T00:21:30;3.70;1.00
9925;DHT22;5001;51.674;7.868;2023-02-10T00:23:57;3.70;1.00
9925;DHT22;5001;51.674;7.868;2023-02-10T00:26:24;3.70;1.00
9925;DHT22;5001;51.674;7.868;2023-02-10T00:28:52;3.70;1.00
9925;DHT22;5001;51.674;7.868;2023-02-10T00:31:19;3.70;1.00
9925;DHT22;5001;51.674;7.868;2023-02-10T00:33:48;3.70;1.00
9925;DHT22;5001;51.674;7.868;2023-02-10T00:36:16;3.80;1.00
9925;DHT22;5001;51.674;7.868;2023-02-10T00:38:43;3.80;1.00
9925;DHT22;5001;51.674;7.868;2023-02-10T00:41:15;3.70;1.00
9925;DHT22;5001;51.674;7.868;2023-02-10T00:43:43;3.70;1.00
9925;DHT22;5001;51.674;7.868;2023-02-10T00:46:12;3.80;1.00
9925;DHT22;5001;51.674;7.868;2023-02-10T00:48:42;3.80;1.00
9925;DHT22;5001;51.674;7.868;2023-02-10T00:51:10;3.80;1.00
9925;DHT22;5001;51.674;7.868;2023-02-10T00:53:37;3.80;1.00
9925;DHT22;5001;51.674;7.868;2023-02-10T00:56:04;3.80;1.00
9925;DHT22;5001;51.674;7.868;2023-02-10T00:58:33;3.80;1.00
9925;DHT22;5001;51.674;7.868;2023-02-10T01:01:02;3.80;1.00
9925;DHT22;5001;51.674;7.868;2023-02-10T01:03:29;3.80;1.00
9925;DHT22;5001;51.674;7.868;2023-02-10T01:05:56;3.80;1.00
9925;DHT22;5001;51.674;7.868;2023-02-10T01:08:23;3.80;1.00
9925;DHT22;5001;51.674;7.868;2023-02-10T01:11:01;3.80;1.00
9925;DHT22;5001;51.674;7.868;2023-02-10T01:13:31;3.80;1.00
9925;DHT22;5001;51.674;7.868;2023-02-10T01:16:01;3.80;1.00
9925;DHT22;5001;51.674;7.868;2023-02-10T01:18:30;3.80;1.00
9925;DHT22;5001;51.674;7.868;2023-02-10T01:20:57;3.80;1.00
9925;DHT22;5001;51.674;7.868;2023-02-10T01:23:24;3.80;1.00
9925;DHT22;5001;51.674;7.868;2023-02-10T01:25:51;3.70;1.00
9925;DHT22;5001;51.674;7.868;2023-02-10T01:28:18;3.80;1.00
9925;DHT22;5001;51.674;7.868;2023-02-10T01:30:45;3.80;1.00
9925;DHT22;5001;51.674;7.868;2023-02-10T01:33:13;3.80;1.00
9925;DHT22;5001;51.674;7.868;2023-02-10T01:35:40;3.80;1.00
9925;DHT22;5001;51.674;7.868;2023-02-10T01:38:07;3.80;1.00
9925;DHT22;5001;51.674;7.868;2023-02-10T01:40:34;3.80;1.00
9925;DHT22;5001;51.674;7.868;2023-02-10T01:43:01;3.80;1.00
9925;DHT22;5001;51.674;7.868;2023-02-10T01:45:34;3.80;1.00
9925;DHT22;5001;51.674;7.868;2023-02-10T01:48:02;3.80;1.00
9925;DHT22;5001;51.674;7.868;2023-02-10T01:50:36;3.80;1.00
9925;DHT22;5001;51.674;7.868;2023-02-10T01:53:04;3.70;1.00
9925;DHT22;5001;51.674;7.868;2023-02-10T01:55:33;3.70;1.00
9925;DHT22;5001;51.674;7.868;2023-02-10T01:58:06;3.70;1.00
9925;DHT22;5001;51.674;7.868;2023-02-10T02:00:35;3.80;1.00
9925;DHT22;5001;51.674;7.868;2023-02-10T02:03:04;3.70;1.00
9925;DHT22;5001;51.674;7.868;2023-02-10T02:08:05;3.70;1.00
9925;DHT22;5001;51.674;7.868;2023-02-10T02:10:45;3.60;1.00
9925;DHT22;5001;51.674;7.868;2023-02-10T02:13:39;3.60;1.00
9925;DHT22;5001;51.674;7.868;2023-02-10T02:19:17;3.50;1.00
9925;DHT22;5001;51.674;7.868;2023-02-10T02:22:10;3.40;1.00
9925;DHT22;5001;51.674;7.868;2023-02-10T02:35:11;3.10;1.00
9925;DHT22;5001;51.674;7.868;2023-02-10T02:37:32;3.10;1.00
9925;DHT22;5001;51.674;7.868;2023-02-10T02:40:00;3.00;1.00
9925;DHT22;5001;51.674;7.868;2023-02-10T02:42:30;2.90;1.00
9925;DHT22;5001;51.674;7.868;2023-02-10T02:45:12;2.80;1.00
9925;DHT22;5001;51.674;7.868;2023-02-10T02:51:24;2.60;1.00
9925;DHT22;5001;51.674;7.868;2023-02-10T02:57:08;2.70;1.00
9925;DHT22;5001;51.674;7.868;2023-02-10T03:02:17;2.70;1.00
9925;DHT22;5001;51.674;7.868;2023-02-10T03:04:48;2.70;1.00
9925;DHT22;5001;51.674;7.868;2023-02-10T03:07:15;2.90;1.00
9925;DHT22;5001;51.674;7.868;2023-02-10T03:09:43;2.90;1.00
9925;DHT22;5001;51.674;7.868;2023-02-10T03:12:11;3.00;1.00
9925;DHT22;5001;51.674;7.868;2023-02-10T03:14:39;3.10;1.00
9925;DHT22;5001;51.674;7.868;2023-02-10T03:17:06;3.10;1.00
9925;DHT22;5001;51.674;7.868;2023-02-10T03:19:33;3.10;1.00
9925;DHT22;5001;51.674;7.868;2023-02-10T03:22:00;3.10;1.00
9925;DHT22;5001;51.674;7.868;2023-02-10T03:24:27;3.00;1.00
9925;DHT22;5001;51.674;7.868;2023-02-10T03:26:54;2.90;1.00
9925;DHT22;5001;51.674;7.868;2023-02-10T03:29:21;2.80;1.00
9925;DHT22;5001;51.674;7.868;2023-02-10T03:31:49;2.70;1.00
9925;DHT22;5001;51.674;7.868;2023-02-10T03:34:17;2.70;1.00
9925;DHT22;5001;51.674;7.868;2023-02-10T03:36:44;2.60;1.00
9925;DHT22;5001;51.674;7.868;2023-02-10T03:39:11;2.60;1.00
9925;DHT22;5001;51.674;7.868;2023-02-10T03:41:38;2.50;1.00
9925;DHT22;5001;51.674;7.868;2023-02-10T03:44:05;2.50;36.10
9925;DHT22;5001;51.674;7.868;2023-02-10T03:46:33;2.50;41.50
9925;DHT22;5001;51.674;7.868;2023-02-10T03:49:00;2.50;50.00
9925;DHT22;5001;51.674;7.868;2023-02-10T03:51:27;2.50;57.90
9925;DHT22;5001;51.674;7.868;2023-02-10T03:53:54;2.40;70.10
9925;DHT22;5001;51.674;7.868;2023-02-10T03:56:21;2.30;93.60
9925;DHT22;5001;51.674;7.868;2023-02-10T03:58:48;2.30;99.90
9925;DHT22;5001;51.674;7.868;2023-02-10T04:01:16;2.20;99.90
9925;DHT22;5001;51.674;7.868;2023-02-10T04:03:44;2.10;99.90
9925;DHT22;5001;51.674;7.868;2023-02-10T04:06:12;2.10;99.90
9925;DHT22;5001;51.674;7.868;2023-02-10T04:08:39;2.10;99.90
9925;DHT22;5001;51.674;7.868;2023-02-10T04:11:06;2.00;99.90
9925;DHT22;5001;51.674;7.868;2023-02-10T04:13:36;2.10;99.90
9925;DHT22;5001;51.674;7.868;2023-02-10T04:16:12;2.00;99.90
9925;DHT22;5001;51.674;7.868;2023-02-10T04:18:40;2.00;99.90
9925;DHT22;5001;51.674;7.868;2023-02-10T04:21:10;2.00;99.90
9925;DHT22;5001;51.674;7.868;2023-02-10T04:23:37;2.00;99.90
9925;DHT22;5001;51.674;7.868;2023-02-10T04:26:04;2.00;99.90
9925;DHT22;5001;51.674;7.868;2023-02-10T04:28:31;2.00;99.90
9925;DHT22;5001;51.674;7.868;2023-02-10T04:30:59;2.00;99.90
9925;DHT22;5001;51.674;7.868;2023-02-10T04:33:27;1.90;99.90
9925;DHT22;5001;51.674;7.868;2023-02-10T04:35:54;1.90;99.90
9925;DHT22;5001;51.674;7.868;2023-02-10T04:38:22;1.80;99.90
9925;DHT22;5001;51.674;7.868;2023-02-10T04:40:49;1.90;99.90
9925;DHT22;5001;51.674;7.868;2023-02-10T04:43:16;1.80;99.90
9925;DHT22;5001;51.674;7.868;2023-02-10T04:45:43;1.80;99.90
9925;DHT22;5001;51.674;7.868;2023-02-10T04:48:11;1.70;99.90
9925;DHT22;5001;51.674;7.868;2023-02-10T04:50:38;1.70;1.00
9925;DHT22;5001;51.674;7.868;2023-02-10T04:53:06;1.80;1.00
9925;DHT22;5001;51.674;7.868;2023-02-10T04:55:34;1.70;1.00
9925;DHT22;5001;51.674;7.868;2023-02-10T04:58:01;1.70;1.00
9925;DHT22;5001;51.674;7.868;2023-02-10T05:00:28;1.80;1.00
9925;DHT22;5001;51.674;7.868;2023-02-10T05:02:55;1.70;1.00
9925;DHT22;5001;51.674;7.868;2023-02-10T05:05:22;1.80;1.00
9925;DHT22;5001;51.674;7.868;2023-02-10T05:07:52;1.70;1.00
9925;DHT22;5001;51.674;7.868;2023-02-10T05:10:19;1.80;1.00
9925;DHT22;5001;51.674;7.868;2023-02-10T05:12:47;1.80;1.00
9925;DHT22;5001;51.674;7.868;2023-02-10T05:15:14;1.80;1.00
9925;DHT22;5001;51.674;7.868;2023-02-10T05:17:41;1.80;1.00
9925;DHT22;5001;51.674;7.868;2023-02-10T05:20:09;1.80;1.00
9925;DHT22;5001;51.674;7.868;2023-02-10T05:22:39;1.70;1.00
9925;DHT22;5001;51.674;7.868;2023-02-10T05:25:07;1.80;1.00
9925;DHT22;5001;51.674;7.868;2023-02-10T05:27:35;1.80;1.00
9925;DHT22;5001;51.674;7.868;2023-02-10T05:30:03;1.70;1.00
9925;DHT22;5001;51.674;7.868;2023-02-10T05:32:30;1.60;1.00
9925;DHT22;5001;51.674;7.868;2023-02-10T05:34:57;1.70;1.00
9925;DHT22;5001;51.674;7.868;2023-02-10T05:37:24;1.50;1.00
9925;DHT22;5001;51.674;7.868;2023-02-10T05:39:54;1.50;1.00
9925;DHT22;5001;51.674;7.868;2023-02-10T05:42:21;1.50;1.00
9925;DHT22;5001;51.674;7.868;2023-02-10T05:44:48;1.50;1.00
9925;DHT22;5001;51.674;7.868;2023-02-10T05:47:15;1.40;1.00
9925;DHT22;5001;51.674;7.868;2023-02-10T05:49:42;1.30;1.00
9925;DHT22;5001;51.674;7.868;2023-02-10T05:52:09;1.40;1.00
9925;DHT22;5001;51.674;7.868;2023-02-10T05:54:36;1.40;1.00
9925;DHT22;5001;51.674;7.868;2023-02-10T05:57:04;1.40;1.00
9925;DHT22;5001;51.674;7.868;2023-02-10T05:59:31;1.40;1.00
9925;DHT22;5001;51.674;7.868;2023-02-10T06:01:58;1.40;1.00
9925;DHT22;5001;51.674;7.868;2023-02-10T06:04:25;1.30;99.90
9925;DHT22;5001;51.674;7.868;2023-02-10T06:06:52;1.40;99.90
9925;DHT22;5001;51.674;7.868;2023-02-10T06:09:19;1.50;99.90
9925;DHT22;5001;51.674;7.868;2023-02-10T06:11:48;1.50;99.90
9925;DHT22;5001;51.674;7.868;2023-02-10T06:14:15;1.60;99.90
9925;DHT22;5001;51.674;7.868;2023-02-10T06:16:42;1.80;93.50
9925;DHT22;5001;51.674;7.868;2023-02-10T06:19:10;1.80;1.00
9925;DHT22;5001;51.674;7.868;2023-02-10T06:21:37;1.90;1.00
9925;DHT22;5001;51.674;7.868;2023-02-10T06:24:04;2.00;1.00
9925;DHT22;5001;51.674;7.868;2023-02-10T06:26:31;2.10;1.00
9925;DHT22;5001;51.674;7.868;2023-02-10T06:28:58;2.10;1.00
9925;DHT22;5001;51.674;7.868;2023-02-10T06:31:25;2.10;1.00
9925;DHT22;5001;51.674;7.868;2023-02-10T06:33:52;2.20;1.00
9925;DHT22;5001;51.674;7.868;2023-02-10T06:36:19;2.30;1.00
9925;DHT22;5001;51.674;7.868;2023-02-10T06:38:46;2.20;1.00
9925;DHT22;5001;51.674;7.868;2023-02-10T06:41:15;2.30;1.00
9925;DHT22;5001;51.674;7.868;2023-02-10T06:43:42;2.30;1.00
9925;DHT22;5001;51.674;7.868;2023-02-10T06:46:09;2.30;1.00
9925;DHT22;5001;51.674;7.868;2023-02-10T06:48:37;2.40;1.00
9925;DHT22;5001;51.674;7.868;2023-02-10T06:51:04;2.40;99.90
9925;DHT22;5001;51.674;7.868;2023-02-10T06:53:31;2.50;99.90
9925;DHT22;5001;51.674;7.868;2023-02-10T06:55:58;2.50;99.90
9925;DHT22;5001;51.674;7.868;2023-02-10T06:58:26;2.60;99.90
9925;DHT22;5001;51.674;7.868;2023-02-10T07:00:53;2.50;99.90
9925;DHT22;5001;51.674;7.868;2023-02-10T07:03:20;2.50;99.90
9925;DHT22;5001;51.674;7.868;2023-02-10T07:05:47;2.60;99.90
9925;DHT22;5001;51.674;7.868;2023-02-10T07:08:14;2.60;99.90
9925;DHT22;5001;51.674;7.868;2023-02-10T07:10:44;2.60;99.90
9925;DHT22;5001;51.674;7.868;2023-02-10T07:13:11;2.60;99.90
9925;DHT22;5001;51.674;7.868;2023-02-10T07:15:38;2.60;99.90
9925;DHT22;5001;51.674;7.868;2023-02-10T07:18:05;2.60;99.90
9925;DHT22;5001;51.674;7.868;2023-02-10T07:20:32;2.70;99.90
9925;DHT22;5001;51.674;7.868;2023-02-10T07:22:59;2.70;99.90
9925;DHT22;5001;51.674;7.868;2023-02-10T07:25:26;2.70;99.90
9925;DHT22;5001;51.674;7.868;2023-02-10T07:27:53;2.70;99.90
9925;DHT22;5001;51.674;7.868;2023-02-10T07:30:20;2.80;99.90
9925;DHT22;5001;51.674;7.868;2023-02-10T07:32:47;2.80;99.90
9925;DHT22;5001;51.674;7.868;2023-02-10T07:35:14;2.80;99.90
9925;DHT22;5001;51.674;7.868;2023-02-10T07:37:41;2.90;99.90
9925;DHT22;5001;51.674;7.868;2023-02-10T07:40:09;2.90;99.90
9925;DHT22;5001;51.674;7.868;2023-02-10T07:42:36;2.90;99.90
9925;DHT22;5001;51.674;7.868;2023-02-10T07:45:16;3.00;93.20
9925;DHT22;5001;51.674;7.868;2023-02-10T07:47:43;3.00;81.10
9925;DHT22;5001;51.674;7.868;2023-02-10T07:50:10;3.00;68.90
9925;DHT22;5001;51.674;7.868;2023-02-10T07:52:36;3.00;67.10
9925;DHT22;5001;51.674;7.868;2023-02-10T07:55:04;3.00;56.90
9925;DHT22;5001;51.674;7.868;2023-02-10T07:57:32;2.90;82.20
9925;DHT22;5001;51.674;7.868;2023-02-10T07:59:59;2.90;56.80
9925;DHT22;5001;51.674;7.868;2023-02-10T08:02:26;2.90;54.50
9925;DHT22;5001;51.674;7.868;2023-02-10T08:04:53;3.00;49.90
9925;DHT22;5001;51.674;7.868;2023-02-10T08:07:22;3.00;35.50
9925;DHT22;5001;51.674;7.868;2023-02-10T08:09:50;3.10;19.10
9925;DHT22;5001;51.674;7.868;2023-02-10T08:12:17;3.20;6.00
9925;DHT22;5001;51.674;7.868;2023-02-10T08:14:45;3.20;1.00
9925;DHT22;5001;51.674;7.868;2023-02-10T08:17:12;3.30;1.00
9925;DHT22;5001;51.674;7.868;2023-02-10T08:19:39;3.40;1.00
9925;DHT22;5001;51.674;7.868;2023-02-10T08:22:06;3.40;1.00
9925;DHT22;5001;51.674;7.868;2023-02-10T08:24:33;3.50;1.00
9925;DHT22;5001;51.674;7.868;2023-02-10T08:27:00;3.60;1.00
9925;DHT22;5001;51.674;7.868;2023-02-10T08:29:27;3.70;1.00
9925;DHT22;5001;51.674;7.868;2023-02-10T08:31:54;3.80;1.00
9925;DHT22;5001;51.674;7.868;2023-02-10T08:34:21;3.80;1.00
9925;DHT22;5001;51.674;7.868;2023-02-10T08:36:48;3.80;1.00
9925;DHT22;5001;51.674;7.868;2023-02-10T08:39:16;3.90;1.00
9925;DHT22;5001;51.674;7.868;2023-02-10T08:41:43;3.90;1.00
9925;DHT22;5001;51.674;7.868;2023-02-10T08:44:12;3.80;1.00
9925;DHT22;5001;51.674;7.868;2023-02-10T08:46:40;3.80;1.00
9925;DHT22;5001;51.674;7.868;2023-02-10T08:49:07;3.60;1.00
9925;DHT22;5001;51.674;7.868;2023-02-10T08:51:34;3.50;1.00
9925;DHT22;5001;51.674;7.868;2023-02-10T08:54:01;3.50;1.00
9925;DHT22;5001;51.674;7.868;2023-02-10T08:56:28;3.40;1.00
9925;DHT22;5001;51.674;7.868;2023-02-10T08:58:56;3.40;1.00
9925;DHT22;5001;51.674;7.868;2023-02-10T09:01:25;3.90;1.00
9925;DHT22;5001;51.674;7.868;2023-02-10T09:03:55;4.30;1.00
9925;DHT22;5001;51.674;7.868;2023-02-10T09:06:29;4.40;1.00
9925;DHT22;5001;51.674;7.868;2023-02-10T09:08:57;4.80;1.00
9925;DHT22;5001;51.674;7.868;2023-02-10T09:11:26;5.10;1.00
9925;DHT22;5001;51.674;7.868;2023-02-10T09:13:53;5.40;1.00
9925;DHT22;5001;51.674;7.868;2023-02-10T09:16:20;5.50;1.00
9925;DHT22;5001;51.674;7.868;2023-02-10T09:18:47;6.00;1.00
9925;DHT22;5001;51.674;7.868;2023-02-10T09:21:14;6.60;1.00
9925;DHT22;5001;51.674;7.868;2023-02-10T09:23:41;6.50;1.00
9925;DHT22;5001;51.674;7.868;2023-02-10T09:26:12;6.30;1.00
9925;DHT22;5001;51.674;7.868;2023-02-10T09:28:39;6.10;1.00
9925;DHT22;5001;51.674;7.868;2023-02-10T09:31:08;6.10;1.00
9925;DHT22;5001;51.674;7.868;2023-02-10T09:33:36;5.90;1.00
9925;DHT22;5001;51.674;7.868;2023-02-10T09:36:05;6.10;1.00
9925;DHT22;5001;51.674;7.868;2023-02-10T09:38:33;6.00;1.00
9925;DHT22;5001;51.674;7.868;2023-02-10T09:41:09;6.00;1.00
9925;DHT22;5001;51.674;7.868;2023-02-10T09:54:25;6.30;1.00
9925;DHT22;5001;51.674;7.868;2023-02-10T09:57:30;6.60;1.00
9925;DHT22;5001;51.674;7.868;2023-02-10T10:00:00;6.90;1.00
9925;DHT22;5001;51.674;7.868;2023-02-10T10:02:46;8.40;1.00
9925;DHT22;5001;51.674;7.868;2023-02-10T10:08:10;9.60;1.00
9925;DHT22;5001;51.674;7.868;2023-02-10T10:10:44;10.60;1.00
9925;DHT22;5001;51.674;7.868;2023-02-10T10:13:24;12.30;1.00
9925;DHT22;5001;51.674;7.868;2023-02-10T10:16:34;14.70;1.00
9925;DHT22;5001;51.674;7.868;2023-02-10T10:22:07;15.30;1.00
9925;DHT22;5001;51.674;7.868;2023-02-10T10:30:47;13.70;1.00
9925;DHT22;5001;51.674;7.868;2023-02-10T10:33:24;13.60;1.00
9925;DHT22;5001;51.674;7.868;2023-02-10T10:35:53;14.80;1.00
9925;DHT22;5001;51.674;7.868;2023-02-10T10:38:28;16.20;1.00
9925;DHT22;5001;51.674;7.868;2023-02-10T10:41:01;13.70;1.00
9925;DHT22;5001;51.674;7.868;2023-02-10T10:43:32;12.30;1.00
9925;DHT22;5001;51.674;7.868;2023-02-10T10:46:16;10.50;1.00
9925;DHT22;5001;51.674;7.868;2023-02-10T10:48:45;9.60;1.00
9925;DHT22;5001;51.674;7.868;2023-02-10T10:51:13;12.10;1.00
9925;DHT22;5001;51.674;7.868;2023-02-10T10:58:45;13.80;1.00
9925;DHT22;5001;51.674;7.868;2023-02-10T11:01:15;14.30;1.00
9925;DHT22;5001;51.674;7.868;2023-02-10T11:03:42;14.60;1.00
9925;DHT22;5001;51.674;7.868;2023-02-10T11:06:13;14.20;1.00
9925;DHT22;5001;51.674;7.868;2023-02-10T11:08:52;16.30;1.00
9925;DHT22;5001;51.674;7.868;2023-02-10T11:11:37;14.50;1.00
9925;DHT22;5001;51.674;7.868;2023-02-10T11:14:38;12.60;1.00
9925;DHT22;5001;51.674;7.868;2023-02-10T11:17:28;12.50;1.00
9925;DHT22;5001;51.674;7.868;2023-02-10T11:22:38;12.50;1.00
9925;DHT22;5001;51.674;7.868;2023-02-10T11:27:51;12.50;1.00
9925;DHT22;5001;51.674;7.868;2023-02-10T11:30:37;13.10;1.00
9925;DHT22;5001;51.674;7.868;2023-02-10T11:33:06;12.60;1.00
9925;DHT22;5001;51.674;7.868;2023-02-10T11:35:49;11.30;1.00
9925;DHT22;5001;51.674;7.868;2023-02-10T11:38:21;10.10;1.00
9925;DHT22;5001;51.674;7.868;2023-02-10T11:41:04;9.70;1.00
9925;DHT22;5001;51.674;7.868;2023-02-10T11:43:43;10.40;1.00
9925;DHT22;5001;51.674;7.868;2023-02-10T11:46:23;10.10;1.00
9925;DHT22;5001;51.674;7.868;2023-02-10T11:49:02;10.70;1.00
9925;DHT22;5001;51.674;7.868;2023-02-10T11:51:30;10.70;1.00
9925;DHT22;5001;51.674;7.868;2023-02-10T11:53:58;10.60;1.00
9925;DHT22;5001;51.674;7.868;2023-02-10T12:28:13;10.30;1.00
9925;DHT22;5001;51.674;7.868;2023-02-10T12:42:59;9.20;1.00
9925;DHT22;5001;51.674;7.868;2023-02-10T12:46:36;9.40;1.00
9925;DHT22;5001;51.674;7.868;2023-02-10T12:54:26;9.70;1.00
9925;DHT22;5001;51.674;7.868;2023-02-10T12:57:17;8.90;1.00
9925;DHT22;5001;51.674;7.868;2023-02-10T12:59:51;9.00;1.00
9925;DHT22;5001;51.674;7.868;2023-02-10T13:02:42;9.80;1.00
9925;DHT22;5001;51.674;7.868;2023-02-10T13:05:27;10.10;1.00
9925;DHT22;5001;51.674;7.868;2023-02-10T13:08:00;10.70;1.00
9925;DHT22;5001;51.674;7.868;2023-02-10T13:10:39;11.40;1.00
9925;DHT22;5001;51.674;7.868;2023-02-10T13:13:20;11.40;1.00
9925;DHT22;5001;51.674;7.868;2023-02-10T13:15:50;11.00;1.00
9925;DHT22;5001;51.674;7.868;2023-02-10T13:18:23;10.30;1.00
9925;DHT22;5001;51.674;7.868;2023-02-10T13:21:12;9.90;1.00
9925;DHT22;5001;51.674;7.868;2023-02-10T13:29:27;9.70;1.00
9925;DHT22;5001;51.674;7.868;2023-02-10T13:34:39;9.90;1.00
9925;DHT22;5001;51.674;7.868;2023-02-10T13:37:22;9.70;1.00
9925;DHT22;5001;51.674;7.868;2023-02-10T13:39:55;9.90;1.00
9925;DHT22;5001;51.674;7.868;2023-02-10T13:45:04;9.80;1.00
9925;DHT22;5001;51.674;7.868;2023-02-10T13:52:50;9.00;1.00
9925;DHT22;5001;51.674;7.868;2023-02-10T14:05:55;8.30;1.00
9925;DHT22;5001;51.674;7.868;2023-02-10T14:08:43;8.20;1.00
9925;DHT22;5001;51.674;7.868;2023-02-10T14:11:45;8.30;1.00
9925;DHT22;5001;51.674;7.868;2023-02-10T14:19:46;8.20;1.00
9925;DHT22;5001;51.674;7.868;2023-02-10T14:22:36;7.90;1.00
9925;DHT22;5001;51.674;7.868;2023-02-10T14:25:30;8.10;1.00
9925;DHT22;5001;51.674;7.868;2023-02-10T14:27:59;8.30;1.00
9925;DHT22;5001;51.674;7.868;2023-02-10T14:30:42;8.50;1.00
9925;DHT22;5001;51.674;7.868;2023-02-10T14:33:31;8.20;1.00
9925;DHT22;5001;51.674;7.868;2023-02-10T14:36:00;8.10;1.00
9925;DHT22;5001;51.674;7.868;2023-02-10T14:38:30;8.00;1.00
9925;DHT22;5001;51.674;7.868;2023-02-10T14:40:58;8.10;1.00
9925;DHT22;5001;51.674;7.868;2023-02-10T14:43:39;8.00;1.00
9925;DHT22;5001;51.674;7.868;2023-02-10T14:46:06;7.80;1.00
9925;DHT22;5001;51.674;7.868;2023-02-10T14:48:36;7.80;1.00
9925;DHT22;5001;51.674;7.868;2023-02-10T14:51:07;7.70;1.00
9925;DHT22;5001;51.674;7.868;2023-02-10T14:53:36;7.70;1.00
9925;DHT22;5001;51.674;7.868;2023-02-10T14:56:12;7.70;1.00
9925;DHT22;5001;51.674;7.868;2023-02-10T14:58:43;7.70;1.00
9925;DHT22;5001;51.674;7.868;2023-02-10T15:03:41;7.70;1.00
9925;DHT22;5001;51.674;7.868;2023-02-10T15:06:09;7.70;1.00
9925;DHT22;5001;51.674;7.868;2023-02-10T15:09:03;7.60;1.00
9925;DHT22;5001;51.674;7.868;2023-02-10T15:11:41;7.60;1.00
9925;DHT22;5001;51.674;7.868;2023-02-10T15:15:22;7.60;1.00
9925;DHT22;5001;51.674;7.868;2023-02-10T15:17:25;7.50;1.00
9925;DHT22;5001;51.674;7.868;2023-02-10T15:22:39;7.40;1.00
9925;DHT22;5001;51.674;7.868;2023-02-10T15:27:57;7.40;1.00
9925;DHT22;5001;51.674;7.868;2023-02-10T15:30:27;7.40;1.00
9925;DHT22;5001;51.674;7.868;2023-02-10T15:32:57;7.40;1.00
9925;DHT22;5001;51.674;7.868;2023-02-10T15:35:25;7.30;1.00
9925;DHT22;5001;51.674;7.868;2023-02-10T15:37:59;7.30;1.00
9925;DHT22;5001;51.674;7.868;2023-02-10T15:40:28;7.30;1.00
9925;DHT22;5001;51.674;7.868;2023-02-10T15:42:57;7.30;1.00
9925;DHT22;5001;51.674;7.868;2023-02-10T15:45:25;7.20;1.00
9925;DHT22;5001;51.674;7.868;2023-02-10T15:50:29;7.20;1.00
9925;DHT22;5001;51.674;7.868;2023-02-10T15:52:57;7.20;1.00
9925;DHT22;5001;51.674;7.868;2023-02-10T15:55:29;7.10;1.00
9925;DHT22;5001;51.674;7.868;2023-02-10T15:57:57;7.00;1.00
9925;DHT22;5001;51.674;7.868;2023-02-10T16:00:30;6.90;1.00
9925;DHT22;5001;51.674;7.868;2023-02-10T16:02:58;6.90;1.00
9925;DHT22;5001;51.674;7.868;2023-02-10T16:05:26;6.90;1.00
9925;DHT22;5001;51.674;7.868;2023-02-10T16:07:56;6.70;1.00
9925;DHT22;5001;51.674;7.868;2023-02-10T16:10:25;6.70;1.00
9925;DHT22;5001;51.674;7.868;2023-02-10T16:12:52;6.70;1.00
9925;DHT22;5001;51.674;7.868;2023-02-10T16:15:22;6.60;1.00
9925;DHT22;5001;51.674;7.868;2023-02-10T16:17:52;6.60;1.00
9925;DHT22;5001;51.674;7.868;2023-02-10T16:20:24;6.50;1.00
9925;DHT22;5001;51.674;7.868;2023-02-10T16:22:52;6.40;1.00
9925;DHT22;5001;51.674;7.868;2023-02-10T16:25:21;6.40;1.00
9925;DHT22;5001;51.674;7.868;2023-02-10T16:27:54;6.40;1.00
9925;DHT22;5001;51.674;7.868;2023-02-10T16:30:26;6.30;1.00
9925;DHT22;5001;51.674;7.868;2023-02-10T16:32:54;6.30;1.00
9925;DHT22;5001;51.674;7.868;2023-02-10T16:35:22;6.20;1.00
9925;DHT22;5001;51.674;7.868;2023-02-10T16:37:50;6.10;1.00
9925;DHT22;5001;51.674;7.868;2023-02-10T16:40:34;6.00;1.00
9925;DHT22;5001;51.674;7.868;2023-02-10T16:43:03;6.00;1.00
9925;DHT22;5001;51.674;7.868;2023-02-10T16:45:31;6.00;1.00
9925;DHT22;5001;51.674;7.868;2023-02-10T16:48:03;5.90;1.00
9925;DHT22;5001;51.674;7.868;2023-02-10T16:53:00;5.80;1.00
9925;DHT22;5001;51.674;7.868;2023-02-10T16:55:28;5.70;1.00
9925;DHT22;5001;51.674;7.868;2023-02-10T16:57:55;5.70;1.00
9925;DHT22;5001;51.674;7.868;2023-02-10T17:00:22;5.70;1.00
9925;DHT22;5001;51.674;7.868;2023-02-10T17:02:49;5.70;1.00
9925;DHT22;5001;51.674;7.868;2023-02-10T17:05:23;5.70;1.00
9925;DHT22;5001;51.674;7.868;2023-02-10T17:07:53;5.60;1.00
9925;DHT22;5001;51.674;7.868;2023-02-10T17:10:25;5.60;1.00
9925;DHT22;5001;51.674;7.868;2023-02-10T17:12:55;5.60;1.00
9925;DHT22;5001;51.674;7.868;2023-02-10T17:15:26;5.60;1.00
9925;DHT22;5001;51.674;7.868;2023-02-10T17:17:56;5.80;1.00
9925;DHT22;5001;51.674;7.868;2023-02-10T17:20:29;5.50;1.00
9925;DHT22;5001;51.674;7.868;2023-02-10T17:23:01;5.40;1.00
9925;DHT22;5001;51.674;7.868;2023-02-10T17:25:30;5.40;1.00
9925;DHT22;5001;51.674;7.868;2023-02-10T17:28:00;5.50;1.00
9925;DHT22;5001;51.674;7.868;2023-02-10T17:30:30;5.60;1.00
9925;DHT22;5001;51.674;7.868;2023-02-10T17:32:57;5.50;1.00
9925;DHT22;5001;51.674;7.868;2023-02-10T17:35:24;5.50;1.00
9925;DHT22;5001;51.674;7.868;2023-02-10T17:37:52;5.50;1.00
9925;DHT22;5001;51.674;7.868;2023-02-10T17:40:37;5.50;1.00
9925;DHT22;5001;51.674;7.868;2023-02-10T17:43:07;5.40;1.00
9925;DHT22;5001;51.674;7.868;2023-02-10T17:45:37;5.30;1.00
9925;DHT22;5001;51.674;7.868;2023-02-10T17:48:04;5.40;1.00
9925;DHT22;5001;51.674;7.868;2023-02-10T17:50:34;5.30;1.00
9925;DHT22;5001;51.674;7.868;2023-02-10T17:53:01;5.20;1.00
9925;DHT22;5001;51.674;7.868;2023-02-10T17:55:31;5.10;1.00
9925;DHT22;5001;51.674;7.868;2023-02-10T17:58:00;5.10;1.00
9925;DHT22;5001;51.674;7.868;2023-02-10T18:00:29;5.10;1.00
9925;DHT22;5001;51.674;7.868;2023-02-10T18:02:57;5.10;1.00
9925;DHT22;5001;51.674;7.868;2023-02-10T18:05:27;5.00;1.00
9925;DHT22;5001;51.674;7.868;2023-02-10T18:07:54;5.00;1.00
9925;DHT22;5001;51.674;7.868;2023-02-10T18:10:21;4.90;1.00
9925;DHT22;5001;51.674;7.868;2023-02-10T18:12:52;4.90;1.00
9925;DHT22;5001;51.674;7.868;2023-02-10T18:15:19;4.80;1.00
9925;DHT22;5001;51.674;7.868;2023-02-10T18:17:47;4.90;1.00
9925;DHT22;5001;51.674;7.868;2023-02-10T18:20:14;4.90;1.00
9925;DHT22;5001;51.674;7.868;2023-02-10T18:22:41;4.80;1.00
9925;DHT22;5001;51.674;7.868;2023-02-10T18:25:10;4.80;1.00
9925;DHT22;5001;51.674;7.868;2023-02-10T18:27:37;4.80;1.00
9925;DHT22;5001;51.674;7.868;2023-02-10T18:30:04;4.80;1.00
9925;DHT22;5001;51.674;7.868;2023-02-10T18:32:38;4.90;1.00
9925;DHT22;5001;51.674;7.868;2023-02-10T18:35:10;4.80;1.00
9925;DHT22;5001;51.674;7.868;2023-02-10T18:37:40;4.80;1.00
9925;DHT22;5001;51.674;7.868;2023-02-10T18:40:08;4.80;1.00
9925;DHT22;5001;51.674;7.868;2023-02-10T18:42:35;4.80;1.00
9925;DHT22;5001;51.674;7.868;2023-02-10T18:45:03;4.70;1.00
9925;DHT22;5001;51.674;7.868;2023-02-10T18:47:30;4.70;1.00
9925;DHT22;5001;51.674;7.868;2023-02-10T18:49:57;4.70;1.00
9925;DHT22;5001;51.674;7.868;2023-02-10T18:52:24;4.70;1.00
9925;DHT22;5001;51.674;7.868;2023-02-10T18:54:51;4.60;1.00
9925;DHT22;5001;51.674;7.868;2023-02-10T18:57:18;4.60;1.00
9925;DHT22;5001;51.674;7.868;2023-02-10T18:59:45;4.80;1.00
9925;DHT22;5001;51.674;7.868;2023-02-10T19:02:12;4.80;1.00
9925;DHT22;5001;51.674;7.868;2023-02-10T19:04:39;4.80;1.00
9925;DHT22;5001;51.674;7.868;2023-02-10T19:07:06;4.60;1.00
9925;DHT22;5001;51.674;7.868;2023-02-10T19:09:34;4.60;1.00
9925;DHT22;5001;51.674;7.868;2023-02-10T19:12:06;4.50;1.00
9925;DHT22;5001;51.674;7.868;2023-02-10T19:14:39;4.60;1.00
9925;DHT22;5001;51.674;7.868;2023-02-10T19:17:06;4.60;1.00
9925;DHT22;5001;51.674;7.868;2023-02-10T19:19:35;4.60;1.00
9925;DHT22;5001;51.674;7.868;2023-02-10T19:22:05;4.50;1.00
9925;DHT22;5001;51.674;7.868;2023-02-10T19:24:37;4.40;1.00